createdAt,value
2019-01-30T00:03:09.679Z,54.70
2019-01-30T00:05:39.864Z,54.67
2019-01-30T00:08:10.155Z,47.50
2019-01-30T00:10:40.411Z,53.03
2019-01-30T00:13:10.751Z,50.30
2019-01-30T00:15:40.982Z,53.60
2019-01-30T00:18:11.250Z,50.93
2019-01-30T00:20:41.569Z,50.60
2019-01-30T00:23:11.842Z,51.80
2019-01-30T00:25:42.071Z,57.40
2019-01-30T00:28:12.380Z,54.30
2019-01-30T00:30:42.642Z,50.27
2019-01-30T00:33:12.921Z,43.73
2019-01-30T00:35:43.153Z,47.03
2019-01-30T00:38:13.443Z,48.13
2019-01-30T00:40:43.767Z,51.60
2019-01-30T00:43:14.229Z,45.53
2019-01-30T00:45:44.493Z,48.47
2019-01-30T00:48:14.765Z,46.70
2019-01-30T00:50:45.190Z,45.73
2019-01-30T00:53:15.461Z,43.47
2019-01-30T00:55:45.749Z,48.13
2019-01-30T00:58:15.994Z,47.80
2019-01-30T01:00:46.287Z,47.37
2019-01-30T01:03:16.494Z,45.57
2019-01-30T01:05:46.735Z,49.70
2019-01-30T01:08:17.023Z,52.23
2019-01-30T01:10:47.379Z,50.57
2019-01-30T01:13:17.643Z,49.90
2019-01-30T01:15:47.899Z,51.17
2019-01-30T01:18:18.139Z,53.90
2019-01-30T01:20:48.446Z,51.63
2019-01-30T01:23:18.687Z,56.53
2019-01-30T01:25:48.976Z,53.80
2019-01-30T01:28:19.265Z,53.70
2019-01-30T01:30:49.638Z,54.60
2019-01-30T01:36:07.850Z,54.93
2019-01-30T01:38:38.121Z,55.07
2019-01-30T01:41:08.342Z,51.83
2019-01-30T01:43:38.678Z,54.40
2019-01-30T01:48:44.888Z,55.40
2019-01-30T01:51:15.192Z,54.90
2019-01-30T01:53:45.424Z,57.73
2019-01-30T01:56:20.838Z,60.17
2019-01-30T01:58:51.142Z,58.63
2019-01-30T02:01:21.419Z,58.90
2019-01-30T02:03:51.610Z,54.70
2019-01-30T02:06:21.886Z,56.67
2019-01-30T02:08:52.146Z,57.97
2019-01-30T02:11:22.455Z,53.53
2019-01-30T02:13:52.675Z,56.20
2019-01-30T02:16:22.826Z,56.47
2019-01-30T02:18:59.494Z,57.60
2019-01-30T02:21:29.737Z,62.43
2019-01-30T02:24:00.960Z,52.20
2019-01-30T02:26:31.250Z,57.77
2019-01-30T02:29:01.482Z,53.27
2019-01-30T02:31:31.850Z,56.73
2019-01-30T02:34:02.106Z,57.63
2019-01-30T02:36:33.916Z,55.20
2019-01-30T02:39:06.502Z,63.97
2019-01-30T02:41:37.076Z,55.80
2019-01-30T02:44:07.396Z,56.93
2019-01-30T02:46:37.654Z,58.10
2019-01-30T02:49:08.036Z,60.87
2019-01-30T02:51:38.227Z,59.47
2019-01-30T02:54:08.515Z,53.97
2019-01-30T02:56:38.764Z,59.77
2019-01-30T02:59:09.035Z,60.87
2019-01-30T03:01:51.366Z,58.00
2019-01-30T03:04:21.623Z,61.50
2019-01-30T03:06:51.921Z,63.80
2019-01-30T03:09:22.218Z,61.00
2019-01-30T03:11:52.461Z,53.30
2019-01-30T03:14:22.685Z,59.90
2019-01-30T03:16:52.909Z,56.00
2019-01-30T03:19:23.206Z,56.20
2019-01-30T03:21:53.439Z,55.57
2019-01-30T03:24:23.782Z,59.80
2019-01-30T03:26:54.017Z,56.33
2019-01-30T03:29:24.283Z,58.07
2019-01-30T03:31:54.512Z,57.33
2019-01-30T03:34:24.776Z,56.03
2019-01-30T03:36:55.015Z,48.33
2019-01-30T03:39:25.296Z,60.30
2019-01-30T03:41:55.559Z,56.53
2019-01-30T03:44:25.915Z,59.13
2019-01-30T03:46:56.137Z,55.57
2019-01-30T03:49:26.363Z,55.27
2019-01-30T03:51:56.631Z,55.40
2019-01-30T03:54:27.877Z,63.63
2019-01-30T03:56:58.143Z,58.77
2019-01-30T03:59:28.379Z,52.13
2019-01-30T04:01:58.646Z,61.83
2019-01-30T04:04:28.944Z,55.97
2019-01-30T04:06:59.202Z,57.20
2019-01-30T04:09:29.424Z,58.77
2019-01-30T04:11:59.642Z,59.97
2019-01-30T04:14:29.983Z,62.10
2019-01-30T04:17:00.209Z,59.60
2019-01-30T04:19:30.503Z,59.83
2019-01-30T04:22:00.779Z,55.83
2019-01-30T04:24:30.923Z,60.17
2019-01-30T04:27:01.218Z,62.10
2019-01-30T04:29:31.424Z,55.83
2019-01-30T04:32:01.665Z,57.80
2019-01-30T04:34:31.934Z,57.77
2019-01-30T04:37:02.248Z,56.67
2019-01-30T04:39:32.444Z,58.43
2019-01-30T04:42:02.730Z,55.27
2019-01-30T04:44:33.071Z,54.50
2019-01-30T04:47:03.383Z,56.83
2019-01-30T04:49:33.694Z,56.53
2019-01-30T04:52:03.970Z,59.20
2019-01-30T04:54:34.257Z,55.97
2019-01-30T04:57:04.531Z,59.00
2019-01-30T04:59:34.728Z,56.77
2019-01-30T05:02:05.103Z,52.57
2019-01-30T05:04:35.491Z,57.73
2019-01-30T05:07:05.806Z,54.00
2019-01-30T05:09:36.034Z,57.00
2019-01-30T05:12:06.383Z,53.10
2019-01-30T05:14:36.698Z,55.33
2019-01-30T05:17:06.991Z,58.67
2019-01-30T05:19:37.330Z,56.67
2019-01-30T05:22:07.553Z,56.40
2019-01-30T05:24:37.753Z,60.20
2019-01-30T05:27:07.988Z,57.60
2019-01-30T05:29:38.297Z,61.60
2019-01-30T05:32:08.626Z,57.10
2019-01-30T05:34:38.875Z,63.87
2019-01-30T05:37:09.078Z,55.27
2019-01-30T05:39:39.317Z,57.90
2019-01-30T05:42:13.685Z,56.33
2019-01-30T05:44:43.977Z,52.07
2019-01-30T05:47:14.270Z,60.10
2019-01-30T05:49:44.564Z,53.63
2019-01-30T05:52:14.870Z,55.67
2019-01-30T05:54:45.249Z,53.00
2019-01-30T05:57:15.556Z,54.30
2019-01-30T05:59:45.921Z,57.07
2019-01-30T06:02:16.281Z,63.97
2019-01-30T06:04:46.607Z,59.47
2019-01-30T06:07:17.089Z,56.90
2019-01-30T06:09:47.418Z,57.20
2019-01-30T06:12:17.686Z,53.13
2019-01-30T06:14:47.972Z,57.93
2019-01-30T06:17:18.279Z,57.70
2019-01-30T06:19:48.503Z,60.27
2019-01-30T06:22:19.032Z,59.97
2019-01-30T06:24:49.173Z,56.60
2019-01-30T06:27:19.575Z,63.07
2019-01-30T06:29:49.821Z,56.37
2019-01-30T06:32:22.300Z,61.43
2019-01-30T06:34:52.522Z,55.00
2019-01-30T06:37:22.893Z,56.97
2019-01-30T06:39:53.177Z,58.80
2019-01-30T06:42:24.370Z,62.27
2019-01-30T06:44:54.619Z,56.70
2019-01-30T06:47:24.929Z,59.90
2019-01-30T06:49:55.155Z,57.30
2019-01-30T06:52:25.417Z,59.70
2019-01-30T06:54:55.685Z,63.57
2019-01-30T06:57:25.963Z,60.97
2019-01-30T06:59:56.225Z,79.60
2019-01-30T07:02:32.288Z,75.20
2019-01-30T07:04:58.400Z,68.50
2019-01-30T07:07:28.720Z,71.30
2019-01-30T07:09:58.932Z,77.63
2019-01-30T07:12:30.279Z,76.83
2019-01-30T07:15:00.537Z,77.73
2019-01-30T07:17:30.913Z,69.57
2019-01-30T07:20:01.213Z,76.87
2019-01-30T07:22:31.565Z,79.90
2019-01-30T07:25:01.901Z,81.33
2019-01-30T07:27:32.203Z,78.90
2019-01-30T07:30:02.553Z,85.83
2019-01-30T07:32:41.949Z,78.60
2019-01-30T07:35:05.661Z,82.67
2019-01-30T07:37:35.945Z,86.63
2019-01-30T07:40:08.415Z,87.87
2019-01-30T07:42:38.927Z,88.43
2019-01-30T07:45:10.794Z,92.00
2019-01-30T07:47:41.179Z,94.87
2019-01-30T07:50:11.767Z,96.03
2019-01-30T07:52:42.107Z,95.70
2019-01-30T07:55:14.686Z,95.27
2019-01-30T07:57:46.285Z,93.07
2019-01-30T08:00:35.706Z,98.93
2019-01-30T08:03:06.034Z,93.63
2019-01-30T08:05:36.280Z,94.90
2019-01-30T08:08:06.519Z,95.50
2019-01-30T08:10:36.801Z,105.93
2019-01-30T08:13:07.179Z,102.60
2019-01-30T08:15:37.472Z,102.87
2019-01-30T08:18:07.694Z,104.73
2019-01-30T08:20:38.085Z,105.67
2019-01-30T08:23:08.730Z,107.73
2019-01-30T08:25:39.109Z,100.73
2019-01-30T08:28:09.614Z,107.70
2019-01-30T08:30:40.306Z,101.43
2019-01-30T08:33:10.852Z,100.40
2019-01-30T08:35:41.205Z,93.50
2019-01-30T08:38:11.533Z,101.07
2019-01-30T08:40:41.720Z,95.37
2019-01-30T08:43:12.023Z,91.43
2019-01-30T08:45:42.338Z,87.00
2019-01-30T08:48:12.622Z,89.43
2019-01-30T08:50:43.016Z,92.67
2019-01-30T08:53:13.299Z,91.10
2019-01-30T08:55:43.530Z,86.73
2019-01-30T08:58:13.938Z,84.13
2019-01-30T09:00:44.179Z,77.83
2019-01-30T09:03:15.236Z,85.73
2019-01-30T09:05:45.494Z,87.80
2019-01-30T09:08:15.808Z,82.40
2019-01-30T09:10:46.200Z,87.50
2019-01-30T09:13:16.519Z,83.97
2019-01-30T09:15:46.842Z,85.77
2019-01-30T09:18:17.125Z,88.20
2019-01-30T09:20:47.345Z,91.47
2019-01-30T09:23:17.614Z,78.47
2019-01-30T09:25:47.798Z,82.47
2019-01-30T09:28:18.132Z,88.53
2019-01-30T09:30:48.390Z,87.10
2019-01-30T09:33:25.634Z,92.37
2019-01-30T09:35:50.578Z,102.43
2019-01-30T09:38:20.792Z,91.83
2019-01-30T09:40:51.051Z,96.57
2019-01-30T09:43:21.346Z,95.13
2019-01-30T09:45:51.600Z,89.10
2019-01-30T09:48:21.936Z,81.23
2019-01-30T09:50:52.325Z,86.70
2019-01-30T09:53:22.825Z,85.77
2019-01-30T09:55:53.071Z,85.63
2019-01-30T09:58:24.009Z,87.23
2019-01-30T10:00:54.238Z,78.17
2019-01-30T10:03:24.573Z,84.63
2019-01-30T10:05:54.856Z,88.23
2019-01-30T10:08:25.249Z,88.10
2019-01-30T10:10:55.558Z,89.40
2019-01-30T10:13:25.853Z,84.57
2019-01-30T10:15:56.961Z,89.03
2019-01-30T10:18:27.251Z,90.57
2019-01-30T10:20:57.536Z,87.33
2019-01-30T10:23:27.823Z,94.93
2019-01-30T10:25:58.121Z,90.80
2019-01-30T10:28:28.357Z,93.03
2019-01-30T10:30:58.779Z,93.00
2019-01-30T10:33:29.221Z,97.90
2019-01-30T10:35:59.593Z,94.83
2019-01-30T10:38:29.979Z,87.97
2019-01-30T10:41:00.231Z,83.50
2019-01-30T10:43:30.561Z,86.63
2019-01-30T10:46:00.926Z,91.43
2019-01-30T10:48:31.211Z,88.50
2019-01-30T10:51:01.550Z,87.00
2019-01-30T10:53:31.904Z,88.13
2019-01-30T10:56:02.162Z,91.47
2019-01-30T10:58:32.519Z,89.97
2019-01-30T11:01:02.910Z,93.80
2019-01-30T11:03:33.233Z,86.37
2019-01-30T11:06:03.506Z,88.73
2019-01-30T11:08:34.533Z,83.97
2019-01-30T11:11:08.116Z,79.33
2019-01-30T11:13:36.881Z,88.00
2019-01-30T11:16:07.216Z,88.83
2019-01-30T11:18:37.461Z,89.33
2019-01-30T11:21:07.799Z,86.43
2019-01-30T11:23:38.179Z,90.87
2019-01-30T11:26:08.495Z,85.07
2019-01-30T11:28:38.710Z,94.03
2019-01-30T11:31:09.027Z,85.13
2019-01-30T11:33:39.336Z,86.13
2019-01-30T11:36:09.626Z,87.20
2019-01-30T11:38:42.609Z,84.60
2019-01-30T11:41:12.903Z,91.37
2019-01-30T11:43:43.164Z,85.63
2019-01-30T11:46:13.544Z,89.30
2019-01-30T11:48:43.985Z,85.87
2019-01-30T11:51:15.736Z,94.40
2019-01-30T11:53:46.319Z,90.00
2019-01-30T11:56:16.660Z,97.33
2019-01-30T11:58:47.018Z,94.20
2019-01-30T12:01:17.314Z,91.57
2019-01-30T12:03:47.662Z,92.00
2019-01-30T12:06:18.066Z,92.53
2019-01-30T12:08:48.470Z,92.30
2019-01-30T12:11:18.734Z,102.17
2019-01-30T12:13:49.121Z,88.67
2019-01-30T12:16:19.450Z,97.57
2019-01-30T12:18:49.783Z,94.07
2019-01-30T12:21:20.062Z,94.13
2019-01-30T12:23:50.380Z,100.13
2019-01-30T12:26:20.612Z,98.80
2019-01-30T12:28:50.886Z,101.63
2019-01-30T12:31:21.193Z,100.57
2019-01-30T12:33:51.618Z,95.83
2019-01-30T12:36:22.343Z,101.03
2019-01-30T12:38:53.650Z,107.33
2019-01-30T12:41:23.954Z,116.90
2019-01-30T12:43:54.272Z,112.30
2019-01-30T12:46:26.870Z,111.73
2019-01-30T12:48:56.652Z,115.00
2019-01-30T12:51:27.025Z,118.93
2019-01-30T12:53:57.392Z,115.67
2019-01-30T12:56:27.698Z,108.97
2019-01-30T12:58:57.979Z,109.20
2019-01-30T13:01:30.844Z,115.90
2019-01-30T13:04:00.181Z,118.73
2019-01-30T13:06:30.528Z,106.37
2019-01-30T13:09:00.968Z,115.00
2019-01-30T13:11:32.906Z,108.27
2019-01-30T13:14:03.266Z,115.07
2019-01-30T13:16:33.584Z,111.30
2019-01-30T13:19:03.891Z,116.20
2019-01-30T13:21:34.207Z,120.43
2019-01-30T13:24:04.600Z,122.43
2019-01-30T13:26:34.902Z,121.83
2019-01-30T13:29:05.499Z,130.37
2019-01-30T13:31:35.824Z,118.20
2019-01-30T13:34:06.221Z,129.20
2019-01-30T13:36:36.482Z,124.73
2019-01-30T13:39:08.617Z,116.50
2019-01-30T13:41:38.899Z,113.10
2019-01-30T13:44:09.232Z,122.60
2019-01-30T13:46:39.555Z,114.20
2019-01-30T13:49:09.922Z,118.00
2019-01-30T13:51:40.171Z,111.93
2019-01-30T13:54:10.545Z,120.20
2019-01-30T13:56:40.868Z,120.47
2019-01-30T13:59:11.001Z,119.00
2019-01-30T14:01:42.129Z,121.47
2019-01-30T14:04:12.369Z,125.17
2019-01-30T14:06:42.665Z,120.40
2019-01-30T14:09:12.976Z,122.10
2019-01-30T14:11:43.284Z,119.80
2019-01-30T14:14:13.535Z,115.70
2019-01-30T14:16:43.828Z,117.13
2019-01-30T14:19:15.113Z,115.47
2019-01-30T14:21:45.321Z,115.87
2019-01-30T14:24:15.604Z,115.87
2019-01-30T14:26:45.905Z,119.67
2019-01-30T14:29:16.177Z,121.07
2019-01-30T14:31:46.552Z,123.20
2019-01-30T14:34:16.864Z,126.03
2019-01-30T14:36:48.252Z,124.53
2019-01-30T14:39:18.538Z,132.10
2019-01-30T14:41:48.831Z,124.10
2019-01-30T14:44:19.139Z,128.10
2019-01-30T14:46:49.498Z,135.97
2019-01-30T14:49:19.737Z,130.73
2019-01-30T14:51:50.025Z,127.77
2019-01-30T14:54:20.311Z,122.93
2019-01-30T14:56:50.865Z,135.20
2019-01-30T14:59:21.117Z,140.33
2019-01-30T15:01:52.417Z,138.07
2019-01-30T15:04:22.849Z,134.83
2019-01-30T15:06:53.125Z,133.90
2019-01-30T15:09:23.409Z,147.23
2019-01-30T15:11:53.687Z,140.77
2019-01-30T15:14:26.434Z,132.40
2019-01-30T15:16:56.680Z,149.20
2019-01-30T15:19:28.062Z,146.47
2019-01-30T15:21:58.487Z,147.27
2019-01-30T15:24:28.778Z,144.67
2019-01-30T15:26:58.938Z,150.70
2019-01-30T15:29:29.234Z,149.10
2019-01-30T15:31:59.478Z,149.03
2019-01-30T15:34:29.706Z,151.10
2019-01-30T15:36:59.942Z,146.77
2019-01-30T15:39:30.266Z,142.13
2019-01-30T15:42:00.570Z,147.77
2019-01-30T15:44:30.837Z,147.37
2019-01-30T15:47:01.252Z,148.80
2019-01-30T15:49:31.538Z,148.23
2019-01-30T15:52:01.942Z,142.47
2019-01-30T15:54:32.277Z,148.37
2019-01-30T15:57:02.655Z,147.00
2019-01-30T15:59:32.898Z,152.77
2019-01-30T16:02:03.222Z,148.30
2019-01-30T16:04:33.547Z,148.20
2019-01-30T16:07:03.782Z,144.10
2019-01-30T16:09:33.995Z,153.70
2019-01-30T16:12:04.245Z,148.20
2019-01-30T16:14:34.568Z,140.50
2019-01-30T16:17:04.747Z,148.87
2019-01-30T16:19:35.179Z,154.73
2019-01-30T16:22:05.479Z,151.87
2019-01-30T16:24:35.770Z,152.40
2019-01-30T16:27:06.023Z,146.60
2019-01-30T16:29:36.392Z,144.80
2019-01-30T16:32:06.806Z,146.20
2019-01-30T16:34:37.090Z,146.57
2019-01-30T16:37:07.584Z,148.43
2019-01-30T16:39:37.846Z,150.17
2019-01-30T16:42:08.164Z,145.17
2019-01-30T16:44:38.486Z,140.77
2019-01-30T16:47:08.775Z,153.43
2019-01-30T16:49:40.103Z,139.40
2019-01-30T16:52:10.434Z,145.77
2019-01-30T16:54:40.755Z,151.77
2019-01-30T16:57:11.197Z,142.63
2019-01-30T16:59:41.543Z,144.83
2019-01-30T17:02:11.890Z,132.60
2019-01-30T17:04:42.152Z,124.20
2019-01-30T17:07:12.619Z,126.20
2019-01-30T17:09:42.877Z,134.00
2019-01-30T17:12:13.174Z,125.73
2019-01-30T17:14:43.510Z,136.70
2019-01-30T17:17:13.827Z,129.70
2019-01-30T17:19:44.177Z,122.17
2019-01-30T17:22:14.707Z,124.07
2019-01-30T17:24:45.035Z,133.20
2019-01-30T17:27:15.396Z,128.77
2019-01-30T17:29:45.697Z,128.27
2019-01-30T17:32:16.339Z,130.27
2019-01-30T17:34:46.700Z,122.37
2019-01-30T17:37:17.109Z,125.20
2019-01-30T17:39:47.398Z,129.90
2019-01-30T17:42:17.731Z,128.40
2019-01-30T17:44:47.971Z,128.57
2019-01-30T17:47:18.706Z,129.00
2019-01-30T17:49:49.051Z,125.10
2019-01-30T17:52:19.482Z,121.53
2019-01-30T17:54:49.858Z,121.97
2019-01-30T17:57:20.133Z,125.30
2019-01-30T17:59:53.253Z,118.90
2019-01-30T18:02:22.501Z,127.20
2019-01-30T18:04:52.807Z,132.47
2019-01-30T18:07:24.677Z,120.40
2019-01-30T18:10:05.750Z,119.63
2019-01-30T18:12:36.073Z,125.53
2019-01-30T18:15:07.220Z,126.50
2019-01-30T18:17:37.487Z,116.77
2019-01-30T18:20:09.780Z,118.43
2019-01-30T18:22:40.083Z,123.17
2019-01-30T18:25:11.699Z,118.37
2019-01-30T18:27:42.014Z,129.27
2019-01-30T18:30:14.852Z,126.37
2019-01-30T18:32:45.544Z,139.63
2019-01-30T18:35:15.938Z,127.50
2019-01-30T18:37:46.418Z,118.43
2019-01-30T18:40:18.526Z,131.57
2019-01-30T18:42:49.138Z,131.97
2019-01-30T18:45:24.424Z,117.97
2019-01-30T18:47:55.238Z,118.63
2019-01-30T18:50:26.712Z,131.60
2019-01-30T18:52:57.370Z,117.07
2019-01-30T18:55:27.700Z,118.13
2019-01-30T18:57:58.041Z,115.90
2019-01-30T19:00:30.292Z,118.07
2019-01-30T19:03:01.740Z,113.00
2019-01-30T19:05:32.903Z,112.37
2019-01-30T19:08:03.244Z,120.67
2019-01-30T19:10:33.630Z,119.50
2019-01-30T19:13:04.395Z,123.90
2019-01-30T19:15:34.767Z,124.47
2019-01-30T19:18:05.703Z,119.07
2019-01-30T19:20:38.178Z,108.83
2019-01-30T19:23:09.020Z,116.63
2019-01-30T19:25:39.882Z,114.27
2019-01-30T19:28:10.504Z,118.10
2019-01-30T19:30:40.908Z,124.70
2019-01-30T19:33:11.562Z,120.67
2019-01-30T19:35:43.048Z,115.33
2019-01-30T19:38:13.415Z,117.63
2019-01-30T19:40:43.686Z,115.27
2019-01-30T19:43:14.015Z,119.57
2019-01-30T19:45:44.221Z,111.00
2019-01-30T19:48:14.578Z,112.20
2019-01-30T19:50:44.948Z,125.30
2019-01-30T19:53:15.319Z,124.80
2019-01-30T19:55:45.819Z,115.30
2019-01-30T19:58:16.254Z,117.97
2019-01-30T20:00:48.661Z,122.97
2019-01-30T20:03:23.124Z,118.67
2019-01-30T20:05:53.380Z,122.23
2019-01-30T20:08:23.846Z,126.33
2019-01-30T20:10:54.256Z,123.67
2019-01-30T20:13:24.757Z,117.47
2019-01-30T20:15:55.042Z,126.37
2019-01-30T20:18:25.569Z,116.10
2019-01-30T20:20:57.240Z,119.63
2019-01-30T20:23:27.666Z,126.70
2019-01-30T20:25:57.879Z,111.77
2019-01-30T20:28:28.182Z,116.57
2019-01-30T20:31:01.216Z,120.57
2019-01-30T20:33:30.502Z,115.83
2019-01-30T20:36:00.752Z,124.23
2019-01-30T20:38:31.074Z,118.27
2019-01-30T20:41:01.550Z,129.10
2019-01-30T20:43:31.938Z,114.93
2019-01-30T20:46:02.344Z,130.57
2019-01-30T20:48:32.802Z,128.33
2019-01-30T20:51:03.086Z,123.90
2019-01-30T20:53:33.491Z,118.67
2019-01-30T20:56:03.786Z,128.33
2019-01-30T20:58:34.174Z,115.90
2019-01-30T21:01:05.508Z,127.00
2019-01-30T21:03:35.780Z,120.13
2019-01-30T21:06:06.255Z,125.73
2019-01-30T21:08:36.551Z,127.20
2019-01-30T21:11:06.888Z,117.07
2019-01-30T21:13:38.137Z,131.27
2019-01-30T21:16:08.446Z,127.47
2019-01-30T21:18:38.766Z,121.10
2019-01-30T21:21:09.085Z,130.27
2019-01-30T21:23:39.386Z,129.70
2019-01-30T21:26:09.703Z,131.10
2019-01-30T21:28:39.927Z,129.63
2019-01-30T21:31:10.258Z,134.90
2019-01-30T21:33:40.582Z,130.80
2019-01-30T21:36:10.908Z,125.87
2019-01-30T21:38:41.241Z,128.23
2019-01-30T21:41:11.657Z,122.00
2019-01-30T21:43:41.993Z,120.67
2019-01-30T21:46:12.242Z,122.93
2019-01-30T21:48:42.663Z,126.43
2019-01-30T21:51:12.993Z,119.20
2019-01-30T21:53:43.331Z,124.50
2019-01-30T21:56:13.638Z,129.23
2019-01-30T21:58:46.521Z,129.83
2019-01-30T22:01:16.805Z,124.77
2019-01-30T22:03:47.173Z,130.27
2019-01-30T22:06:17.501Z,130.87
2019-01-30T22:08:47.863Z,127.47
2019-01-30T22:11:18.119Z,130.13
2019-01-30T22:13:48.471Z,137.60
2019-01-30T22:16:18.730Z,133.27
2019-01-30T22:18:49.026Z,133.87
2019-01-30T22:21:19.296Z,131.17
2019-01-30T22:23:49.676Z,133.23
2019-01-30T22:26:19.946Z,127.00
2019-01-30T22:28:50.306Z,132.57
2019-01-30T22:31:20.586Z,128.50
2019-01-30T22:33:50.912Z,129.63
2019-01-30T22:36:21.208Z,134.43
2019-01-30T22:38:51.495Z,139.57
2019-01-30T22:41:21.815Z,138.10
2019-01-30T22:43:52.059Z,139.27
2019-01-30T22:46:22.355Z,139.80
2019-01-30T22:48:52.665Z,130.97
2019-01-30T22:51:23.018Z,181.20
2019-01-30T22:53:53.403Z,135.10
2019-01-30T22:56:23.601Z,132.63
2019-01-30T22:58:53.889Z,131.67
2019-01-30T23:01:46.568Z,135.83
2019-01-30T23:04:39.804Z,132.10
2019-01-30T23:07:14.859Z,135.40
2019-01-30T23:10:14.170Z,139.73
2019-01-30T23:13:17.773Z,143.17
2019-01-30T23:15:57.236Z,135.40
2019-01-30T23:19:02.814Z,140.60
2019-01-30T23:21:39.999Z,136.10
2019-01-30T23:24:52.754Z,136.47
2019-01-30T23:27:33.535Z,131.97
2019-01-30T23:30:41.846Z,128.53
2019-01-30T23:33:42.491Z,131.23
2019-01-30T23:36:52.008Z,128.40
2019-01-30T23:39:46.316Z,128.90
2019-01-30T23:42:51.822Z,129.83
2019-01-30T23:45:59.851Z,142.43
2019-01-30T23:49:05.936Z,120.10
2019-01-30T23:52:35.942Z,131.30
2019-01-30T23:55:49.815Z,116.67
2019-01-30T23:58:37.297Z,126.77
